Hopedale, Ohio
Current Conditions -  °F | °C
As of 2:53 AM on Saturday 29 Nov 2014 (Local Time) from KHLG Reporting Station
Overcast Overcast  
Wind Chill: 20°   Ceiling: 8000
Heat Index: 28°   Visibility: 10mi
Dew Point: 20°   Wind: 8mph
Humidity: 72%   Direction: 140°SE
Pressure: 30.14"   Gusts: NA
Location:  40.33°N, 80.9°W
Report Text: KHLG 290753Z AUTO 14007KT 10SM OVC080 M02/M07 A3014 RMK AO2 SLP225 T10221067
Loading
Personal Weather Stations






























Interactive Weather Map New forecast layout! Learn more

10-Day Weather Forecast

Advertisements
Track Severe Weather on mobile